sensor_id;sensor_type;location;lat;lon;timestamp;temperature;humidity
12893;DHT22;6514;48.606;9.222;2023-04-04T00:01:57;0.30;99.90
12893;DHT22;6514;48.606;9.222;2023-04-04T00:04:25;0.30;99.90
12893;DHT22;6514;48.606;9.222;2023-04-04T00:06:52;0.30;99.90
12893;DHT22;6514;48.606;9.222;2023-04-04T00:09:20;0.30;99.90
12893;DHT22;6514;48.606;9.222;2023-04-04T00:11:47;0.30;99.90
12893;DHT22;6514;48.606;9.222;2023-04-04T00:14:15;0.30;99.90
12893;DHT22;6514;48.606;9.222;2023-04-04T00:16:42;0.30;99.90
12893;DHT22;6514;48.606;9.222;2023-04-04T00:19:09;0.30;99.90
12893;DHT22;6514;48.606;9.222;2023-04-04T00:21:42;0.30;99.90
12893;DHT22;6514;48.606;9.222;2023-04-04T00:24:09;0.30;99.90
12893;DHT22;6514;48.606;9.222;2023-04-04T00:26:37;0.30;99.90
12893;DHT22;6514;48.606;9.222;2023-04-04T00:29:04;0.20;99.90
12893;DHT22;6514;48.606;9.222;2023-04-04T00:31:31;0.20;99.90
12893;DHT22;6514;48.606;9.222;2023-04-04T00:33:58;0.10;99.90
12893;DHT22;6514;48.606;9.222;2023-04-04T00:36:25;0.00;99.90
12893;DHT22;6514;48.606;9.222;2023-04-04T00:38:51;0.00;99.90
12893;DHT22;6514;48.606;9.222;2023-04-04T00:41:18;-0.10;99.90
12893;DHT22;6514;48.606;9.222;2023-04-04T00:43:47;-0.10;99.90
12893;DHT22;6514;48.606;9.222;2023-04-04T00:46:14;-0.10;99.90
12893;DHT22;6514;48.606;9.222;2023-04-04T00:48:43;-0.10;99.90
12893;DHT22;6514;48.606;9.222;2023-04-04T00:51:10;-0.20;99.90
12893;DHT22;6514;48.606;9.222;2023-04-04T00:53:37;-0.20;99.90
12893;DHT22;6514;48.606;9.222;2023-04-04T00:56:04;-0.20;99.90
12893;DHT22;6514;48.606;9.222;2023-04-04T00:58:31;-0.30;99.90
12893;DHT22;6514;48.606;9.222;2023-04-04T01:01:00;-0.40;99.90
12893;DHT22;6514;48.606;9.222;2023-04-04T01:03:27;-0.50;99.90
12893;DHT22;6514;48.606;9.222;2023-04-04T01:05:54;-0.50;99.90
12893;DHT22;6514;48.606;9.222;2023-04-04T01:08:23;-0.60;99.90
12893;DHT22;6514;48.606;9.222;2023-04-04T01:10:51;-0.60;99.90
12893;DHT22;6514;48.606;9.222;2023-04-04T01:13:18;-0.70;99.90
12893;DHT22;6514;48.606;9.222;2023-04-04T01:15:46;-0.70;99.90
12893;DHT22;6514;48.606;9.222;2023-04-04T01:18:19;-0.70;99.90
12893;DHT22;6514;48.606;9.222;2023-04-04T01:20:50;-0.80;99.90
12893;DHT22;6514;48.606;9.222;2023-04-04T01:23:19;-0.80;99.90
12893;DHT22;6514;48.606;9.222;2023-04-04T01:25:48;-0.80;99.90
12893;DHT22;6514;48.606;9.222;2023-04-04T01:28:15;-0.80;99.90
12893;DHT22;6514;48.606;9.222;2023-04-04T01:30:43;-0.80;99.90
12893;DHT22;6514;48.606;9.222;2023-04-04T01:33:19;-0.80;99.90
12893;DHT22;6514;48.606;9.222;2023-04-04T01:36:01;-0.80;99.90
12893;DHT22;6514;48.606;9.222;2023-04-04T01:38:34;-0.90;99.90
12893;DHT22;6514;48.606;9.222;2023-04-04T01:41:07;-0.90;99.90
12893;DHT22;6514;48.606;9.222;2023-04-04T01:43:34;-1.00;99.90
12893;DHT22;6514;48.606;9.222;2023-04-04T01:46:02;-1.00;99.90
12893;DHT22;6514;48.606;9.222;2023-04-04T01:48:28;-1.00;99.90
12893;DHT22;6514;48.606;9.222;2023-04-04T01:50:56;-1.00;99.90
12893;DHT22;6514;48.606;9.222;2023-04-04T01:53:23;-1.00;99.90
12893;DHT22;6514;48.606;9.222;2023-04-04T01:55:50;-1.00;99.90
12893;DHT22;6514;48.606;9.222;2023-04-04T01:58:20;-1.00;99.90
12893;DHT22;6514;48.606;9.222;2023-04-04T02:00:47;-1.10;99.90
12893;DHT22;6514;48.606;9.222;2023-04-04T02:03:13;-1.10;99.90
12893;DHT22;6514;48.606;9.222;2023-04-04T02:05:40;-1.10;99.90
12893;DHT22;6514;48.606;9.222;2023-04-04T02:08:08;-1.20;99.90
12893;DHT22;6514;48.606;9.222;2023-04-04T02:10:35;-1.30;99.90
12893;DHT22;6514;48.606;9.222;2023-04-04T02:13:01;-1.30;99.90
12893;DHT22;6514;48.606;9.222;2023-04-04T02:15:30;-1.30;99.90
12893;DHT22;6514;48.606;9.222;2023-04-04T02:17:56;-1.30;99.90
12893;DHT22;6514;48.606;9.222;2023-04-04T02:20:23;-1.20;99.90
12893;DHT22;6514;48.606;9.222;2023-04-04T02:22:51;-1.20;99.90
12893;DHT22;6514;48.606;9.222;2023-04-04T02:25:18;-1.20;99.90
12893;DHT22;6514;48.606;9.222;2023-04-04T02:27:45;-1.10;99.90
12893;DHT22;6514;48.606;9.222;2023-04-04T02:30:13;-1.10;99.90
12893;DHT22;6514;48.606;9.222;2023-04-04T02:32:41;-1.10;99.90
12893;DHT22;6514;48.606;9.222;2023-04-04T02:35:08;-1.20;99.90
12893;DHT22;6514;48.606;9.222;2023-04-04T02:37:35;-1.30;99.90
12893;DHT22;6514;48.606;9.222;2023-04-04T02:40:04;-1.30;99.90
12893;DHT22;6514;48.606;9.222;2023-04-04T02:42:31;-1.20;99.90
12893;DHT22;6514;48.606;9.222;2023-04-04T02:44:58;-1.30;99.90
12893;DHT22;6514;48.606;9.222;2023-04-04T02:47:25;-1.30;99.90
12893;DHT22;6514;48.606;9.222;2023-04-04T02:49:53;-1.30;99.90
12893;DHT22;6514;48.606;9.222;2023-04-04T02:52:20;-1.40;99.90
12893;DHT22;6514;48.606;9.222;2023-04-04T02:54:47;-1.40;99.90
12893;DHT22;6514;48.606;9.222;2023-04-04T02:57:14;-1.40;99.90
12893;DHT22;6514;48.606;9.222;2023-04-04T02:59:41;-1.50;99.90
12893;DHT22;6514;48.606;9.222;2023-04-04T03:02:07;-1.50;99.90
12893;DHT22;6514;48.606;9.222;2023-04-04T03:04:34;-1.50;99.90
12893;DHT22;6514;48.606;9.222;2023-04-04T03:07:03;-1.50;99.90
12893;DHT22;6514;48.606;9.222;2023-04-04T03:09:30;-1.50;99.90
12893;DHT22;6514;48.606;9.222;2023-04-04T03:11:57;-1.50;99.90
12893;DHT22;6514;48.606;9.222;2023-04-04T03:14:25;-1.50;99.90
12893;DHT22;6514;48.606;9.222;2023-04-04T03:16:54;-1.50;99.90
12893;DHT22;6514;48.606;9.222;2023-04-04T03:19:21;-1.50;99.90
12893;DHT22;6514;48.606;9.222;2023-04-04T03:21:48;-1.50;99.90
12893;DHT22;6514;48.606;9.222;2023-04-04T03:24:16;-1.50;99.90
12893;DHT22;6514;48.606;9.222;2023-04-04T03:26:43;-1.40;99.90
12893;DHT22;6514;48.606;9.222;2023-04-04T03:29:10;-1.50;99.90
12893;DHT22;6514;48.606;9.222;2023-04-04T03:31:37;-1.50;99.90
12893;DHT22;6514;48.606;9.222;2023-04-04T03:34:03;-1.50;99.90
12893;DHT22;6514;48.606;9.222;2023-04-04T03:36:30;-1.50;99.90
12893;DHT22;6514;48.606;9.222;2023-04-04T03:38:57;-1.50;99.90
12893;DHT22;6514;48.606;9.222;2023-04-04T03:41:26;-1.50;99.90
12893;DHT22;6514;48.606;9.222;2023-04-04T03:43:53;-1.50;99.90
12893;DHT22;6514;48.606;9.222;2023-04-04T03:46:19;-1.50;99.90
12893;DHT22;6514;48.606;9.222;2023-04-04T03:48:46;-1.50;99.90
12893;DHT22;6514;48.606;9.222;2023-04-04T03:51:13;-1.50;99.90
12893;DHT22;6514;48.606;9.222;2023-04-04T03:53:40;-1.50;99.90
12893;DHT22;6514;48.606;9.222;2023-04-04T03:56:07;-1.60;99.90
12893;DHT22;6514;48.606;9.222;2023-04-04T03:58:36;-1.60;99.90
12893;DHT22;6514;48.606;9.222;2023-04-04T04:01:04;-1.60;99.90
12893;DHT22;6514;48.606;9.222;2023-04-04T04:03:31;-1.70;99.90
12893;DHT22;6514;48.606;9.222;2023-04-04T04:05:58;-1.70;99.90
12893;DHT22;6514;48.606;9.222;2023-04-04T04:08:25;-1.80;99.90
12893;DHT22;6514;48.606;9.222;2023-04-04T04:10:52;-1.80;99.90
12893;DHT22;6514;48.606;9.222;2023-04-04T04:13:19;-1.90;99.90
12893;DHT22;6514;48.606;9.222;2023-04-04T04:15:47;-1.90;99.90
12893;DHT22;6514;48.606;9.222;2023-04-04T04:18:14;-1.90;99.90
12893;DHT22;6514;48.606;9.222;2023-04-04T04:20:41;-2.00;99.90
12893;DHT22;6514;48.606;9.222;2023-04-04T04:23:07;-2.00;99.90
12893;DHT22;6514;48.606;9.222;2023-04-04T04:25:34;-2.10;99.90
12893;DHT22;6514;48.606;9.222;2023-04-04T04:28:01;-2.10;99.90
12893;DHT22;6514;48.606;9.222;2023-04-04T04:30:28;-2.10;99.90
12893;DHT22;6514;48.606;9.222;2023-04-04T04:32:56;-2.10;99.90
12893;DHT22;6514;48.606;9.222;2023-04-04T04:35:23;-2.00;99.90
12893;DHT22;6514;48.606;9.222;2023-04-04T04:37:50;-2.00;99.90
12893;DHT22;6514;48.606;9.222;2023-04-04T04:40:17;-2.00;99.90
12893;DHT22;6514;48.606;9.222;2023-04-04T04:42:44;-2.00;99.90
12893;DHT22;6514;48.606;9.222;2023-04-04T04:45:11;-2.00;99.90
12893;DHT22;6514;48.606;9.222;2023-04-04T04:47:38;-1.90;99.90
12893;DHT22;6514;48.606;9.222;2023-04-04T04:50:07;-1.90;99.90
12893;DHT22;6514;48.606;9.222;2023-04-04T04:52:36;-2.00;99.90
12893;DHT22;6514;48.606;9.222;2023-04-04T04:55:03;-2.00;99.90
12893;DHT22;6514;48.606;9.222;2023-04-04T04:57:30;-1.90;99.90
12893;DHT22;6514;48.606;9.222;2023-04-04T04:59:58;-1.90;99.90
12893;DHT22;6514;48.606;9.222;2023-04-04T05:02:25;-1.90;99.90
12893;DHT22;6514;48.606;9.222;2023-04-04T05:04:53;-1.90;99.90
12893;DHT22;6514;48.606;9.222;2023-04-04T05:07:21;-1.90;99.90
12893;DHT22;6514;48.606;9.222;2023-04-04T05:12:15;-2.00;99.90
12893;DHT22;6514;48.606;9.222;2023-04-04T05:14:42;-2.00;99.90
12893;DHT22;6514;48.606;9.222;2023-04-04T05:17:09;-1.90;99.90
12893;DHT22;6514;48.606;9.222;2023-04-04T05:19:36;-1.90;99.90
12893;DHT22;6514;48.606;9.222;2023-04-04T05:22:03;-2.00;99.90
12893;DHT22;6514;48.606;9.222;2023-04-04T05:24:31;-1.90;99.90
12893;DHT22;6514;48.606;9.222;2023-04-04T05:26:58;-1.90;99.90
12893;DHT22;6514;48.606;9.222;2023-04-04T05:29:25;-1.80;99.90
12893;DHT22;6514;48.606;9.222;2023-04-04T05:31:52;-1.80;99.90
12893;DHT22;6514;48.606;9.222;2023-04-04T05:34:20;-1.70;99.90
12893;DHT22;6514;48.606;9.222;2023-04-04T05:36:47;-1.70;99.90
12893;DHT22;6514;48.606;9.222;2023-04-04T05:39:13;-1.60;99.90
12893;DHT22;6514;48.606;9.222;2023-04-04T05:41:42;-1.60;99.90
12893;DHT22;6514;48.606;9.222;2023-04-04T05:44:08;-1.50;99.90
12893;DHT22;6514;48.606;9.222;2023-04-04T05:46:36;-1.40;99.90
12893;DHT22;6514;48.606;9.222;2023-04-04T05:49:02;-1.30;99.90
12893;DHT22;6514;48.606;9.222;2023-04-04T05:51:29;-1.30;99.90
12893;DHT22;6514;48.606;9.222;2023-04-04T05:53:56;-1.20;99.90
12893;DHT22;6514;48.606;9.222;2023-04-04T05:56:23;-1.00;99.90
12893;DHT22;6514;48.606;9.222;2023-04-04T05:58:51;-1.00;99.90
12893;DHT22;6514;48.606;9.222;2023-04-04T06:01:18;-0.90;99.90
12893;DHT22;6514;48.606;9.222;2023-04-04T06:03:45;-0.80;99.90
12893;DHT22;6514;48.606;9.222;2023-04-04T06:06:12;-0.60;99.90
12893;DHT22;6514;48.606;9.222;2023-04-04T06:08:39;-0.50;99.90
12893;DHT22;6514;48.606;9.222;2023-04-04T06:11:06;-0.50;99.90
12893;DHT22;6514;48.606;9.222;2023-04-04T06:13:32;-0.30;99.90
12893;DHT22;6514;48.606;9.222;2023-04-04T06:16:01;-0.20;99.90
12893;DHT22;6514;48.606;9.222;2023-04-04T06:18:27;-0.10;99.90
12893;DHT22;6514;48.606;9.222;2023-04-04T06:20:54;0.00;99.90
12893;DHT22;6514;48.606;9.222;2023-04-04T06:23:21;0.10;99.90
12893;DHT22;6514;48.606;9.222;2023-04-04T06:25:48;0.20;99.90
12893;DHT22;6514;48.606;9.222;2023-04-04T06:28:15;0.40;99.90
12893;DHT22;6514;48.606;9.222;2023-04-04T06:30:43;0.50;99.90
12893;DHT22;6514;48.606;9.222;2023-04-04T06:33:11;0.70;99.90
12893;DHT22;6514;48.606;9.222;2023-04-04T06:35:38;0.90;99.90
12893;DHT22;6514;48.606;9.222;2023-04-04T06:38:05;1.10;99.90
12893;DHT22;6514;48.606;9.222;2023-04-04T06:40:32;1.40;99.90
12893;DHT22;6514;48.606;9.222;2023-04-04T06:42:59;1.70;99.90
12893;DHT22;6514;48.606;9.222;2023-04-04T06:45:26;2.00;99.90
12893;DHT22;6514;48.606;9.222;2023-04-04T06:47:53;2.30;99.90
12893;DHT22;6514;48.606;9.222;2023-04-04T06:50:21;2.50;99.90
12893;DHT22;6514;48.606;9.222;2023-04-04T06:52:49;2.80;99.90
12893;DHT22;6514;48.606;9.222;2023-04-04T06:55:16;2.90;99.90
12893;DHT22;6514;48.606;9.222;2023-04-04T06:57:43;3.10;99.90
12893;DHT22;6514;48.606;9.222;2023-04-04T07:00:12;3.30;99.90
12893;DHT22;6514;48.606;9.222;2023-04-04T07:02:39;3.50;99.90
12893;DHT22;6514;48.606;9.222;2023-04-04T07:05:06;3.80;99.90
12893;DHT22;6514;48.606;9.222;2023-04-04T07:07:34;4.10;99.90
12893;DHT22;6514;48.606;9.222;2023-04-04T07:10:01;4.30;99.90
12893;DHT22;6514;48.606;9.222;2023-04-04T07:12:29;4.50;99.90
12893;DHT22;6514;48.606;9.222;2023-04-04T07:14:56;4.60;99.90
12893;DHT22;6514;48.606;9.222;2023-04-04T07:17:23;4.70;99.90
12893;DHT22;6514;48.606;9.222;2023-04-04T07:19:50;4.90;99.90
12893;DHT22;6514;48.606;9.222;2023-04-04T07:22:17;5.00;99.90
12893;DHT22;6514;48.606;9.222;2023-04-04T07:24:45;5.20;99.90
12893;DHT22;6514;48.606;9.222;2023-04-04T07:27:12;5.40;99.90
12893;DHT22;6514;48.606;9.222;2023-04-04T07:29:40;5.40;99.90
12893;DHT22;6514;48.606;9.222;2023-04-04T07:32:07;5.40;99.90
12893;DHT22;6514;48.606;9.222;2023-04-04T07:34:34;5.60;99.90
12893;DHT22;6514;48.606;9.222;2023-04-04T07:37:01;5.80;99.90
12893;DHT22;6514;48.606;9.222;2023-04-04T07:39:28;6.00;99.90
12893;DHT22;6514;48.606;9.222;2023-04-04T07:41:57;6.20;99.90
12893;DHT22;6514;48.606;9.222;2023-04-04T07:44:23;6.50;99.90
12893;DHT22;6514;48.606;9.222;2023-04-04T07:46:50;6.70;99.90
12893;DHT22;6514;48.606;9.222;2023-04-04T07:49:17;6.90;99.90
12893;DHT22;6514;48.606;9.222;2023-04-04T07:51:44;7.20;99.90
12893;DHT22;6514;48.606;9.222;2023-04-04T07:54:11;7.30;99.90
12893;DHT22;6514;48.606;9.222;2023-04-04T07:56:38;7.30;99.90
12893;DHT22;6514;48.606;9.222;2023-04-04T07:59:06;7.20;99.90
12893;DHT22;6514;48.606;9.222;2023-04-04T08:01:33;7.10;99.90
12893;DHT22;6514;48.606;9.222;2023-04-04T08:04:01;7.00;99.90
12893;DHT22;6514;48.606;9.222;2023-04-04T08:06:30;7.00;99.90
12893;DHT22;6514;48.606;9.222;2023-04-04T08:08:57;7.20;99.90
12893;DHT22;6514;48.606;9.222;2023-04-04T08:11:25;7.30;99.90
12893;DHT22;6514;48.606;9.222;2023-04-04T08:13:52;7.40;99.90
12893;DHT22;6514;48.606;9.222;2023-04-04T08:16:20;7.50;99.90
12893;DHT22;6514;48.606;9.222;2023-04-04T08:18:48;7.90;99.90
12893;DHT22;6514;48.606;9.222;2023-04-04T08:21:15;8.30;99.90
12893;DHT22;6514;48.606;9.222;2023-04-04T08:23:42;8.30;99.90
12893;DHT22;6514;48.606;9.222;2023-04-04T08:26:09;8.60;99.90
12893;DHT22;6514;48.606;9.222;2023-04-04T08:28:36;8.60;99.90
12893;DHT22;6514;48.606;9.222;2023-04-04T08:31:03;9.30;99.90
12893;DHT22;6514;48.606;9.222;2023-04-04T08:33:31;9.70;99.90
12893;DHT22;6514;48.606;9.222;2023-04-04T08:35:59;9.80;99.90
12893;DHT22;6514;48.606;9.222;2023-04-04T08:38:26;9.80;99.90
12893;DHT22;6514;48.606;9.222;2023-04-04T08:40:52;9.50;99.90
12893;DHT22;6514;48.606;9.222;2023-04-04T08:43:20;9.40;99.90
12893;DHT22;6514;48.606;9.222;2023-04-04T08:45:49;9.30;99.90
12893;DHT22;6514;48.606;9.222;2023-04-04T08:48:20;9.10;99.90
12893;DHT22;6514;48.606;9.222;2023-04-04T08:50:49;8.90;99.90
12893;DHT22;6514;48.606;9.222;2023-04-04T08:53:18;9.20;99.90
12893;DHT22;6514;48.606;9.222;2023-04-04T08:55:45;9.70;99.90
12893;DHT22;6514;48.606;9.222;2023-04-04T08:58:13;10.00;99.90
12893;DHT22;6514;48.606;9.222;2023-04-04T09:00:41;10.40;99.90
12893;DHT22;6514;48.606;9.222;2023-04-04T09:03:13;10.30;99.90
12893;DHT22;6514;48.606;9.222;2023-04-04T09:05:42;10.40;99.90
12893;DHT22;6514;48.606;9.222;2023-04-04T09:08:12;10.40;99.90
12893;DHT22;6514;48.606;9.222;2023-04-04T09:10:41;10.50;99.90
12893;DHT22;6514;48.606;9.222;2023-04-04T09:13:09;10.70;99.90
12893;DHT22;6514;48.606;9.222;2023-04-04T09:15:37;10.80;99.90
12893;DHT22;6514;48.606;9.222;2023-04-04T09:18:06;10.70;99.90
12893;DHT22;6514;48.606;9.222;2023-04-04T09:20:37;10.50;99.90
12893;DHT22;6514;48.606;9.222;2023-04-04T09:23:05;10.50;99.90
12893;DHT22;6514;48.606;9.222;2023-04-04T09:25:35;10.70;99.90
12893;DHT22;6514;48.606;9.222;2023-04-04T09:28:02;10.90;99.90
12893;DHT22;6514;48.606;9.222;2023-04-04T09:30:31;10.90;99.90
12893;DHT22;6514;48.606;9.222;2023-04-04T09:33:03;10.90;99.90
12893;DHT22;6514;48.606;9.222;2023-04-04T09:35:31;10.90;99.90
12893;DHT22;6514;48.606;9.222;2023-04-04T09:37:58;10.90;99.90
12893;DHT22;6514;48.606;9.222;2023-04-04T09:40:25;10.90;99.90
12893;DHT22;6514;48.606;9.222;2023-04-04T09:42:58;10.80;99.90
12893;DHT22;6514;48.606;9.222;2023-04-04T09:45:26;10.90;99.90
12893;DHT22;6514;48.606;9.222;2023-04-04T09:47:55;10.90;99.90
12893;DHT22;6514;48.606;9.222;2023-04-04T09:50:23;10.80;99.90
12893;DHT22;6514;48.606;9.222;2023-04-04T09:52:56;10.90;99.90
12893;DHT22;6514;48.606;9.222;2023-04-04T09:55:31;11.20;99.90
12893;DHT22;6514;48.606;9.222;2023-04-04T09:58:10;10.80;99.90
12893;DHT22;6514;48.606;9.222;2023-04-04T10:00:39;10.70;99.90
12893;DHT22;6514;48.606;9.222;2023-04-04T10:03:07;10.60;99.90
12893;DHT22;6514;48.606;9.222;2023-04-04T10:05:33;10.50;99.90
12893;DHT22;6514;48.606;9.222;2023-04-04T10:08:12;10.60;99.90
12893;DHT22;6514;48.606;9.222;2023-04-04T10:10:45;10.80;99.90
12893;DHT22;6514;48.606;9.222;2023-04-04T10:13:20;11.00;99.90
12893;DHT22;6514;48.606;9.222;2023-04-04T10:15:48;11.00;99.90
12893;DHT22;6514;48.606;9.222;2023-04-04T10:18:15;11.10;99.90
12893;DHT22;6514;48.606;9.222;2023-04-04T10:20:42;11.30;99.90
12893;DHT22;6514;48.606;9.222;2023-04-04T10:23:09;11.20;99.90
12893;DHT22;6514;48.606;9.222;2023-04-04T10:25:36;11.50;99.90
12893;DHT22;6514;48.606;9.222;2023-04-04T10:28:03;11.70;99.90
12893;DHT22;6514;48.606;9.222;2023-04-04T10:30:32;12.00;99.90
12893;DHT22;6514;48.606;9.222;2023-04-04T10:33:06;12.20;99.90
12893;DHT22;6514;48.606;9.222;2023-04-04T10:35:37;12.30;99.90
12893;DHT22;6514;48.606;9.222;2023-04-04T10:38:05;12.30;99.90
12893;DHT22;6514;48.606;9.222;2023-04-04T10:40:35;11.80;99.90
12893;DHT22;6514;48.606;9.222;2023-04-04T10:43:03;11.70;99.90
12893;DHT22;6514;48.606;9.222;2023-04-04T10:45:33;11.60;99.90
12893;DHT22;6514;48.606;9.222;2023-04-04T10:48:03;11.50;99.90
12893;DHT22;6514;48.606;9.222;2023-04-04T10:50:30;11.60;99.90
12893;DHT22;6514;48.606;9.222;2023-04-04T10:52:59;11.80;99.90
12893;DHT22;6514;48.606;9.222;2023-04-04T10:55:28;11.80;99.90
12893;DHT22;6514;48.606;9.222;2023-04-04T10:57:56;11.60;99.90
12893;DHT22;6514;48.606;9.222;2023-04-04T11:00:24;11.80;99.90
12893;DHT22;6514;48.606;9.222;2023-04-04T11:02:54;12.00;99.90
12893;DHT22;6514;48.606;9.222;2023-04-04T11:05:24;12.20;99.90
12893;DHT22;6514;48.606;9.222;2023-04-04T11:07:55;12.30;99.90
12893;DHT22;6514;48.606;9.222;2023-04-04T11:10:23;12.30;99.90
12893;DHT22;6514;48.606;9.222;2023-04-04T11:12:52;12.00;99.90
12893;DHT22;6514;48.606;9.222;2023-04-04T11:15:23;11.70;99.90
12893;DHT22;6514;48.606;9.222;2023-04-04T11:17:57;11.70;99.90
12893;DHT22;6514;48.606;9.222;2023-04-04T11:20:29;11.80;99.90
12893;DHT22;6514;48.606;9.222;2023-04-04T11:23:07;12.00;99.90
12893;DHT22;6514;48.606;9.222;2023-04-04T11:25:38;12.50;99.90
12893;DHT22;6514;48.606;9.222;2023-04-04T11:28:08;12.70;99.90
12893;DHT22;6514;48.606;9.222;2023-04-04T11:30:41;12.90;99.90
12893;DHT22;6514;48.606;9.222;2023-04-04T11:33:24;13.00;99.20
12893;DHT22;6514;48.606;9.222;2023-04-04T11:35:57;13.40;99.90
12893;DHT22;6514;48.606;9.222;2023-04-04T11:38:26;13.60;99.90
12893;DHT22;6514;48.606;9.222;2023-04-04T11:40:55;13.80;98.90
12893;DHT22;6514;48.606;9.222;2023-04-04T11:43:23;14.00;99.60
12893;DHT22;6514;48.606;9.222;2023-04-04T11:45:52;14.00;99.30
12893;DHT22;6514;48.606;9.222;2023-04-04T11:48:21;14.10;99.90
12893;DHT22;6514;48.606;9.222;2023-04-04T11:50:49;14.20;99.00
12893;DHT22;6514;48.606;9.222;2023-04-04T11:53:16;13.70;99.90
12893;DHT22;6514;48.606;9.222;2023-04-04T11:55:47;13.60;99.40
12893;DHT22;6514;48.606;9.222;2023-04-04T11:58:16;13.30;98.20
12893;DHT22;6514;48.606;9.222;2023-04-04T12:00:43;13.20;99.20
12893;DHT22;6514;48.606;9.222;2023-04-04T12:03:11;13.40;99.10
12893;DHT22;6514;48.606;9.222;2023-04-04T12:05:42;13.50;99.90
12893;DHT22;6514;48.606;9.222;2023-04-04T12:08:10;13.50;98.50
12893;DHT22;6514;48.606;9.222;2023-04-04T12:10:38;13.70;99.50
12893;DHT22;6514;48.606;9.222;2023-04-04T12:13:06;13.50;98.20
12893;DHT22;6514;48.606;9.222;2023-04-04T12:15:33;13.40;97.00
12893;DHT22;6514;48.606;9.222;2023-04-04T12:18:01;12.70;98.40
12893;DHT22;6514;48.606;9.222;2023-04-04T12:20:28;12.00;99.60
12893;DHT22;6514;48.606;9.222;2023-04-04T12:22:58;12.00;99.90
12893;DHT22;6514;48.606;9.222;2023-04-04T12:25:25;12.60;99.70
12893;DHT22;6514;48.606;9.222;2023-04-04T12:27:58;13.00;99.90
12893;DHT22;6514;48.606;9.222;2023-04-04T12:30:26;13.40;98.20
12893;DHT22;6514;48.606;9.222;2023-04-04T12:32:53;13.50;98.40
12893;DHT22;6514;48.606;9.222;2023-04-04T12:35:20;13.70;99.00
12893;DHT22;6514;48.606;9.222;2023-04-04T12:37:59;13.60;98.00
12893;DHT22;6514;48.606;9.222;2023-04-04T12:40:34;13.60;99.70
12893;DHT22;6514;48.606;9.222;2023-04-04T12:43:03;13.80;97.00
12893;DHT22;6514;48.606;9.222;2023-04-04T12:45:31;13.80;98.20
12893;DHT22;6514;48.606;9.222;2023-04-04T12:47:58;13.90;97.30
12893;DHT22;6514;48.606;9.222;2023-04-04T12:50:26;13.90;97.00
12893;DHT22;6514;48.606;9.222;2023-04-04T12:52:53;13.90;95.30
12893;DHT22;6514;48.606;9.222;2023-04-04T12:55:23;13.60;95.80
12893;DHT22;6514;48.606;9.222;2023-04-04T12:57:50;13.70;96.80
12893;DHT22;6514;48.606;9.222;2023-04-04T13:00:19;13.60;95.50
12893;DHT22;6514;48.606;9.222;2023-04-04T13:02:48;13.50;98.40
12893;DHT22;6514;48.606;9.222;2023-04-04T13:05:17;13.40;97.30
12893;DHT22;6514;48.606;9.222;2023-04-04T13:07:46;13.50;98.60
12893;DHT22;6514;48.606;9.222;2023-04-04T13:10:14;13.80;97.30
12893;DHT22;6514;48.606;9.222;2023-04-04T13:12:54;14.20;96.00
12893;DHT22;6514;48.606;9.222;2023-04-04T13:15:23;14.20;95.10
12893;DHT22;6514;48.606;9.222;2023-04-04T13:18:13;14.00;95.70
12893;DHT22;6514;48.606;9.222;2023-04-04T13:20:40;13.80;98.30
12893;DHT22;6514;48.606;9.222;2023-04-04T13:23:07;13.80;95.20
12893;DHT22;6514;48.606;9.222;2023-04-04T13:25:34;13.90;95.90
12893;DHT22;6514;48.606;9.222;2023-04-04T13:28:02;13.80;96.20
12893;DHT22;6514;48.606;9.222;2023-04-04T13:30:29;13.50;94.90
12893;DHT22;6514;48.606;9.222;2023-04-04T13:32:56;13.10;94.80
12893;DHT22;6514;48.606;9.222;2023-04-04T13:35:23;13.10;94.50
12893;DHT22;6514;48.606;9.222;2023-04-04T13:37:51;13.00;95.40
12893;DHT22;6514;48.606;9.222;2023-04-04T13:40:18;13.00;97.60
12893;DHT22;6514;48.606;9.222;2023-04-04T13:42:45;13.10;99.90
12893;DHT22;6514;48.606;9.222;2023-04-04T13:45:13;13.50;99.00
12893;DHT22;6514;48.606;9.222;2023-04-04T13:47:40;14.00;96.30
12893;DHT22;6514;48.606;9.222;2023-04-04T13:50:07;14.10;94.60
12893;DHT22;6514;48.606;9.222;2023-04-04T13:52:34;14.10;95.90
12893;DHT22;6514;48.606;9.222;2023-04-04T13:55:02;14.10;96.70
12893;DHT22;6514;48.606;9.222;2023-04-04T13:57:30;13.90;95.60
12893;DHT22;6514;48.606;9.222;2023-04-04T13:59:57;13.90;95.40
12893;DHT22;6514;48.606;9.222;2023-04-04T14:02:25;13.80;94.90
12893;DHT22;6514;48.606;9.222;2023-04-04T14:04:52;13.40;95.30
12893;DHT22;6514;48.606;9.222;2023-04-04T14:07:19;13.10;96.80
12893;DHT22;6514;48.606;9.222;2023-04-04T14:09:46;13.00;98.30
12893;DHT22;6514;48.606;9.222;2023-04-04T14:12:12;13.20;94.80
12893;DHT22;6514;48.606;9.222;2023-04-04T14:14:39;13.30;95.30
12893;DHT22;6514;48.606;9.222;2023-04-04T14:17:06;13.30;95.40
12893;DHT22;6514;48.606;9.222;2023-04-04T14:19:36;13.60;96.50
12893;DHT22;6514;48.606;9.222;2023-04-04T14:22:03;13.80;95.70
12893;DHT22;6514;48.606;9.222;2023-04-04T14:24:30;13.50;94.60
12893;DHT22;6514;48.606;9.222;2023-04-04T14:26:57;13.40;93.50
12893;DHT22;6514;48.606;9.222;2023-04-04T14:29:24;13.20;94.90
12893;DHT22;6514;48.606;9.222;2023-04-04T14:31:51;13.10;94.70
12893;DHT22;6514;48.606;9.222;2023-04-04T14:34:20;13.00;95.00
12893;DHT22;6514;48.606;9.222;2023-04-04T14:36:48;13.10;96.60
12893;DHT22;6514;48.606;9.222;2023-04-04T14:39:15;13.30;95.00
12893;DHT22;6514;48.606;9.222;2023-04-04T14:41:42;13.00;94.80
12893;DHT22;6514;48.606;9.222;2023-04-04T14:44:08;12.90;94.80
12893;DHT22;6514;48.606;9.222;2023-04-04T14:46:35;12.60;96.20
12893;DHT22;6514;48.606;9.222;2023-04-04T14:49:02;12.80;95.40
12893;DHT22;6514;48.606;9.222;2023-04-04T14:51:30;12.90;95.30
12893;DHT22;6514;48.606;9.222;2023-04-04T14:53:59;12.70;94.70
12893;DHT22;6514;48.606;9.222;2023-04-04T14:56:26;12.50;96.10
12893;DHT22;6514;48.606;9.222;2023-04-04T14:58:52;12.30;95.40
12893;DHT22;6514;48.606;9.222;2023-04-04T15:01:21;12.40;96.40
12893;DHT22;6514;48.606;9.222;2023-04-04T15:03:48;12.50;95.50
12893;DHT22;6514;48.606;9.222;2023-04-04T15:06:15;12.20;95.30
12893;DHT22;6514;48.606;9.222;2023-04-04T15:08:42;12.10;96.60
12893;DHT22;6514;48.606;9.222;2023-04-04T15:11:10;12.10;95.00
12893;DHT22;6514;48.606;9.222;2023-04-04T15:13:37;12.20;94.70
12893;DHT22;6514;48.606;9.222;2023-04-04T15:16:04;12.30;98.20
12893;DHT22;6514;48.606;9.222;2023-04-04T15:18:31;12.40;96.80
12893;DHT22;6514;48.606;9.222;2023-04-04T15:20:58;12.40;94.70
12893;DHT22;6514;48.606;9.222;2023-04-04T15:23:26;12.20;95.50
12893;DHT22;6514;48.606;9.222;2023-04-04T15:25:53;12.00;95.50
12893;DHT22;6514;48.606;9.222;2023-04-04T15:28:21;12.00;96.50
12893;DHT22;6514;48.606;9.222;2023-04-04T15:30:48;12.00;95.50
12893;DHT22;6514;48.606;9.222;2023-04-04T15:33:15;11.60;95.20
12893;DHT22;6514;48.606;9.222;2023-04-04T15:35:42;11.50;96.40
12893;DHT22;6514;48.606;9.222;2023-04-04T15:38:08;11.40;95.60
12893;DHT22;6514;48.606;9.222;2023-04-04T15:40:35;11.20;96.00
12893;DHT22;6514;48.606;9.222;2023-04-04T15:43:02;11.20;95.20
12893;DHT22;6514;48.606;9.222;2023-04-04T15:45:30;11.10;96.80
12893;DHT22;6514;48.606;9.222;2023-04-04T15:47:57;11.10;96.40
12893;DHT22;6514;48.606;9.222;2023-04-04T15:50:24;11.00;95.90
12893;DHT22;6514;48.606;9.222;2023-04-04T15:52:51;11.00;97.10
12893;DHT22;6514;48.606;9.222;2023-04-04T15:55:18;11.00;97.60
12893;DHT22;6514;48.606;9.222;2023-04-04T15:57:45;11.10;96.50